Time;durP1;ratioP1;P1;durP2;ratioP2;P2;SDS_P1;SDS_P2;PMS_P1;PMS_P2;Temp;Humidity;BMP_temperature;BMP_pressure;BME280_temperature;BME280_humidity;BME280_pressure;Samples;Min_cycle;Max_cycle;Signal;HPM_P1;HPM_P2
2022/10/01 00:05:39;;;;;;;25.02;14.98;;;;;;;18.06;100.00;98909.92;4374249;79;28533;-89
2022/10/01 00:11:40;;;;;;;26.80;15.15;;;;;;;18.03;99.74;98900.16;4368202;79;28485;-93
2022/10/01 00:17:42;;;;;;;24.70;14.70;;;;;;;17.87;100.00;98890.73;4366597;81;28493;-92
2022/10/01 00:23:45;;;;;;;24.85;13.95;;;;;;;17.72;100.00;98893.02;4367355;80;28521;-92
2022/10/01 00:29:46;;;;;;;24.05;14.43;;;;;;;17.76;100.00;98887.29;4367957;81;28501;-92
2022/10/01 00:35:48;;;;;;;21.87;13.43;;;;;;;17.58;100.00;98883.88;4371212;81;28525;-91
2022/10/01 00:41:50;;;;;;;24.92;14.13;;;;;;;17.71;100.00;98884.59;4367938;80;28535;-92
2022/10/01 00:47:59;;;;;;;26.57;14.18;;;;;;;17.91;99.43;98890.45;4368404;81;28522;-92
2022/10/01 00:54:11;;;;;;;24.25;14.28;;;;;;;17.78;100.00;98889.17;4369300;81;28527;-93
2022/10/01 01:00:13;;;;;;;25.30;14.87;;;;;;;17.71;100.00;98887.31;4370592;81;28587;-92
2022/10/01 01:06:15;;;;;;;23.80;13.58;;;;;;;17.10;100.00;98877.05;4369188;81;28489;-92
2022/10/01 01:12:54;;;;;;;23.47;14.07;;;;;;;17.03;100.00;98874.63;4368771;81;28461;-92
2022/10/01 01:19:01;;;;;;;23.75;14.07;;;;;;;16.91;100.00;98865.41;4347636;81;28528;-91
2022/10/01 01:25:16;;;;;;;25.25;13.88;;;;;;;17.51;100.00;98865.95;4368149;81;28505;-92
2022/10/01 01:31:28;;;;;;;24.60;14.10;;;;;;;17.69;100.00;98874.55;4368399;81;28603;-92
2022/10/01 01:37:34;;;;;;;21.17;12.60;;;;;;;17.27;100.00;98882.13;4368920;81;28531;-93
2022/10/01 01:43:40;;;;;;;21.02;12.88;;;;;;;17.33;100.00;98885.63;4369430;80;28498;-95
2022/10/01 01:49:42;;;;;;;22.85;13.40;;;;;;;17.13;100.00;98892.24;4357587;81;28519;-94
2022/10/01 01:55:47;;;;;;;22.82;13.25;;;;;;;17.05;100.00;98890.66;4343543;82;28482;-94
2022/10/01 02:01:49;;;;;;;23.95;12.85;;;;;;;17.39;100.00;98891.31;4392523;81;28473;-93
2022/10/01 02:08:14;;;;;;;21.23;12.65;;;;;;;17.46;100.00;98897.80;4402541;81;28476;-94
2022/10/01 02:14:27;;;;;;;22.50;12.15;;;;;;;17.30;100.00;98887.55;4313459;81;28491;-94
2022/10/01 02:20:34;;;;;;;21.75;12.47;;;;;;;17.59;100.00;98885.49;4314274;82;28552;-96
2022/10/01 02:26:37;;;;;;;21.00;11.88;;;;;;;17.60;100.00;98882.50;4314517;82;28495;-95
2022/10/01 02:32:43;;;;;;;25.35;13.28;;;;;;;17.26;100.00;98895.44;4314829;82;28508;-91
2022/10/01 02:38:45;;;;;;;22.42;12.07;;;;;;;17.55;100.00;98906.45;4295895;82;28515;-95
2022/10/01 02:44:49;;;;;;;22.98;12.73;;;;;;;17.49;100.00;98914.36;4346668;81;28502;-91
2022/10/01 02:50:54;;;;;;;23.27;14.25;;;;;;;17.22;100.00;98910.13;4421564;77;28502;-92
2022/10/01 03:03:17;;;;;;;21.37;12.23;;;;;;;16.67;100.00;98924.39;4523397;77;28482;-92
2022/10/01 03:09:18;;;;;;;20.17;12.65;;;;;;;16.63;100.00;98922.50;4444603;79;28525;-92
2022/10/01 03:15:20;;;;;;;24.67;12.75;;;;;;;16.57;100.00;98929.30;4438717;79;28534;-91
2022/10/01 03:21:21;;;;;;;19.37;11.35;;;;;;;16.97;100.00;98924.05;4522699;77;28479;-93
2022/10/01 03:27:23;;;;;;;17.90;11.33;;;;;;;16.99;100.00;98918.35;4534111;77;28483;-96
2022/10/01 03:33:24;;;;;;;20.37;11.95;;;;;;;17.47;100.00;98919.27;4431434;79;28549;-95
2022/10/01 03:46:32;;;;;;;21.65;12.80;;;;;;;17.42;100.00;98925.53;4413843;79;28549;-96
2022/10/01 03:52:34;;;;;;;22.13;13.88;;;;;;;17.16;100.00;98919.94;4420828;79;28540;-95
2022/10/01 03:58:35;;;;;;;25.72;15.08;;;;;;;17.30;100.00;98922.88;4417923;79;28518;-95
2022/10/01 04:04:37;;;;;;;23.02;13.62;;;;;;;16.67;100.00;98909.46;4417524;81;28478;-96
2022/10/01 04:10:38;;;;;;;22.77;13.03;;;;;;;16.94;100.00;98908.84;4417478;79;28504;-96
2022/10/01 04:16:40;;;;;;;23.30;13.85;;;;;;;16.86;100.00;98888.52;4419259;79;28472;-96
2022/10/01 04:22:42;;;;;;;20.20;12.00;;;;;;;16.81;100.00;98892.59;4416776;79;28493;-95
2022/10/01 04:28:45;;;;;;;23.60;12.60;;;;;;;16.91;100.00;98886.33;4414600;79;28595;-93
2022/10/01 04:34:52;;;;;;;21.40;13.72;;;;;;;17.10;100.00;98879.23;4414597;79;28518;-92
2022/10/01 04:40:54;;;;;;;26.23;13.48;;;;;;;17.33;100.00;98886.45;4406154;79;28586;-92
2022/10/01 04:46:55;;;;;;;23.52;13.22;;;;;;;17.06;100.00;98893.08;4393893;79;28513;-94
2022/10/01 04:52:57;;;;;;;23.38;13.45;;;;;;;17.48;100.00;98890.16;4424931;79;28470;-95
2022/10/01 04:58:58;;;;;;;22.67;12.82;;;;;;;16.99;100.00;98884.41;4427647;79;28493;-95
2022/10/01 05:05:02;;;;;;;26.13;14.63;;;;;;;17.60;100.00;98878.96;4432833;79;28498;-96
2022/10/01 05:11:10;;;;;;;23.12;13.98;;;;;;;17.78;100.00;98892.42;4420881;79;28478;-89
2022/10/01 05:17:12;;;;;;;26.33;15.32;;;;;;;17.53;100.00;98901.02;4347998;79;28512;-91
2022/10/01 05:23:13;;;;;;;27.77;15.13;;;;;;;17.93;100.00;98889.61;4373270;80;28602;-89
2022/10/01 05:29:15;;;;;;;25.85;14.95;;;;;;;17.73;100.00;98898.71;4332536;79;28534;-90
2022/10/01 05:35:16;;;;;;;26.85;14.98;;;;;;;17.80;100.00;98886.16;4336834;80;28512;-84
2022/10/01 05:41:18;;;;;;;27.77;15.35;;;;;;;17.95;100.00;98890.67;4346271;79;28589;-84
2022/10/01 05:47:20;;;;;;;28.70;16.17;;;;;;;18.47;100.00;98892.44;4312615;80;28649;-85
2022/10/01 05:53:22;;;;;;;30.57;17.00;;;;;;;18.22;100.00;98894.84;4320455;80;28536;-83
2022/10/01 05:59:23;;;;;;;30.77;17.65;;;;;;;17.87;100.00;98905.69;4306482;79;28505;-85
2022/10/01 06:05:27;;;;;;;29.87;17.05;;;;;;;18.03;100.00;98900.16;4340739;79;28562;-84
2022/10/01 06:11:28;;;;;;;31.75;16.95;;;;;;;18.20;100.00;98894.33;4353696;80;28489;-84
2022/10/01 06:17:30;;;;;;;31.02;17.17;;;;;;;18.77;97.85;98882.33;4346372;79;28580;-84
2022/10/01 06:23:31;;;;;;;34.20;19.50;;;;;;;18.94;96.03;98885.12;4323276;81;28517;-85
2022/10/01 06:29:33;;;;;;;36.10;18.48;;;;;;;18.38;99.18;98888.72;4253963;82;28522;-86
2022/10/01 06:35:37;;;;;;;31.65;18.73;;;;;;;18.79;98.03;98880.66;4332448;79;28514;-86
2022/10/01 06:41:40;;;;;;;35.48;19.02;;;;;;;18.42;99.35;98873.98;4261234;81;28619;-87
2022/10/01 06:47:44;;;;;;;39.75;20.82;;;;;;;18.51;99.17;98874.98;4304750;79;28493;-86
2022/10/01 06:53:47;;;;;;;38.30;21.27;;;;;;;19.00;96.61;98875.83;4264138;81;28588;-84
2022/10/01 06:59:49;;;;;;;38.42;20.72;;;;;;;19.42;92.15;98876.12;4319994;81;28506;-86
2022/10/01 07:05:50;;;;;;;35.95;20.12;;;;;;;19.58;91.79;98867.70;4293834;81;28525;-85
2022/10/01 07:11:52;;;;;;;31.07;18.07;;;;;;;19.86;89.54;98861.81;4299825;81;28560;-84
2022/10/01 07:17:54;;;;;;;32.67;18.42;;;;;;;19.89;88.71;98860.41;4295685;81;28581;-84
2022/10/01 07:23:55;;;;;;;30.52;17.57;;;;;;;19.81;91.13;98851.54;4294619;81;28542;-84
2022/10/01 07:29:57;;;;;;;32.80;17.45;;;;;;;20.07;88.69;98853.33;4281271;81;28720;-84
2022/10/01 07:36:01;;;;;;;29.95;17.12;;;;;;;20.11;88.32;98844.81;4212985;82;28498;-84
2022/10/01 07:42:03;;;;;;;30.80;17.75;;;;;;;20.26;87.95;98843.73;4229102;82;28499;-84
2022/10/01 07:48:06;;;;;;;35.10;18.00;;;;;;;20.30;86.57;98840.64;4295218;80;28550;-89
2022/10/01 07:54:08;;;;;;;28.65;16.35;;;;;;;20.48;86.37;98834.84;4290008;81;28523;-86
2022/10/01 08:00:11;;;;;;;26.25;15.78;;;;;;;20.05;87.75;98834.54;4294558;81;28488;-88
2022/10/01 08:06:13;;;;;;;26.15;15.43;;;;;;;20.19;86.97;98840.58;4297805;81;28582;-93
2022/10/01 08:12:16;;;;;;;27.95;16.73;;;;;;;20.25;87.44;98833.90;4241543;81;28567;-86
2022/10/01 08:18:21;;;;;;;28.85;17.00;;;;;;;19.74;90.92;98830.92;4311401;81;28551;-86
2022/10/01 08:24:23;;;;;;;29.87;16.90;;;;;;;19.43;93.66;98832.76;4281344;81;28574;-86
2022/10/01 08:30:26;;;;;;;26.30;15.50;;;;;;;19.39;95.17;98829.55;4330236;80;28567;-85
2022/10/01 08:36:29;;;;;;;24.57;14.85;;;;;;;19.35;97.22;98829.33;4347041;80;28542;-85
2022/10/01 08:42:54;;;;;;;28.83;16.05;;;;;;;19.56;95.67;98821.64;4366439;80;28498;-87
2022/10/01 08:49:05;;;;;;;30.48;15.72;;;;;;;19.63;96.58;98815.83;4274253;80;28583;-85
2022/10/01 08:55:18;;;;;;;31.23;17.52;;;;;;;19.71;93.82;98811.61;4257719;80;28604;-86
2022/10/01 09:01:22;;;;;;;28.50;18.45;;;;;;;19.42;96.52;98797.61;4222652;82;28628;-86
2022/10/01 09:07:53;;;;;;;33.23;18.07;;;;;;;19.65;96.23;98794.53;4253837;82;28574;-89
2022/10/01 09:14:19;;;;;;;29.80;17.17;;;;;;;19.84;95.85;98790.95;4173537;82;28523;-84
2022/10/01 09:20:30;;;;;;;31.95;16.95;;;;;;;19.23;95.85;98782.89;4204629;83;28542;-85
2022/10/01 09:26:37;;;;;;;31.25;17.92;;;;;;;19.68;94.37;98780.83;4193485;82;28549;-88
2022/10/01 09:33:04;;;;;;;32.23;18.73;;;;;;;19.96;94.28;98783.67;4191775;83;28563;-85
2022/10/01 09:39:23;;;;;;;35.25;17.42;;;;;;;20.37;91.69;98768.47;4202936;82;28618;-87
2022/10/01 09:45:24;;;;;;;28.60;16.30;;;;;;;20.03;91.45;98763.06;4146422;83;28526;-86
2022/10/01 09:51:37;;;;;;;28.50;17.20;;;;;;;20.67;88.50;98757.47;4216330;82;28537;-86
2022/10/01 09:57:45;;;;;;;26.90;16.02;;;;;;;20.82;88.08;98755.00;4260129;81;28572;-86
2022/10/01 10:03:57;;;;;;;25.08;15.90;;;;;;;20.93;83.49;98751.50;4229681;81;28555;-85
2022/10/01 10:10:11;;;;;;;22.65;15.15;;;;;;;21.10;80.40;98750.84;4207952;83;28618;-82
2022/10/01 10:16:29;;;;;;;24.55;15.40;;;;;;;21.34;77.35;98747.55;4214720;82;28543;-82
2022/10/01 10:22:31;;;;;;;24.27;14.55;;;;;;;20.91;80.91;98743.36;4260596;81;28556;-83
2022/10/01 10:28:47;;;;;;;20.60;13.05;;;;;;;20.98;81.63;98732.24;4164830;83;28960;-83
2022/10/01 10:34:47;;;;;;;19.27;12.00;;;;;;;20.97;81.17;98726.53;4239563;82;28485;-83
2022/10/01 10:40:51;;;;;;;28.05;13.48;;;;;;;21.19;81.16;98716.73;4153657;82;28561;-81
2022/10/01 10:47:13;;;;;;;18.95;12.80;;;;;;;20.95;81.33;98699.26;4261295;81;28477;-81
2022/10/01 10:53:25;;;;;;;21.95;12.82;;;;;;;21.12;80.15;98691.75;4291571;80;28527;-80
2022/10/01 10:59:30;;;;;;;21.27;12.10;;;;;;;20.96;81.46;98681.74;4313773;81;28647;-81
2022/10/01 11:05:40;;;;;;;22.73;13.05;;;;;;;21.38;80.11;98671.42;4339271;79;28590;-80
2022/10/01 11:12:07;;;;;;;18.67;13.10;;;;;;;21.67;78.40;98650.23;4361415;79;28521;-82
2022/10/01 11:18:22;;;;;;;22.35;13.40;;;;;;;21.38;79.46;98637.83;4364960;80;28484;-82
2022/10/01 11:25:10;;;;;;;18.87;12.63;;;;;;;21.34;80.78;98632.72;4293874;81;28527;-80
2022/10/01 11:31:32;;;;;;;17.40;12.03;;;;;;;21.44;80.56;98619.60;4275754;82;28544;-80
2022/10/01 11:37:46;;;;;;;22.58;14.10;;;;;;;22.13;76.65;98613.94;4343500;79;28536;-81
2022/10/01 11:43:55;;;;;;;19.98;13.78;;;;;;;22.16;77.69;98596.86;4385654;79;28574;-81
2022/10/01 11:50:04;;;;;;;19.42;13.18;;;;;;;22.92;74.72;98586.59;4365401;79;28542;-83
2022/10/01 12:02:49;;;;;;;21.02;12.50;;;;;;;21.87;79.79;98583.19;4321710;81;28529;-81
2022/10/01 12:09:18;;;;;;;20.02;12.90;;;;;;;22.66;76.02;98564.12;4356796;80;28581;-81
2022/10/01 12:15:32;;;;;;;20.10;12.75;;;;;;;22.58;75.62;98558.08;4264505;81;28636;-82
2022/10/01 12:21:41;;;;;;;;;;;;;;;22.65;76.62;98550.73;4263225;81;28539;-82
2022/10/01 12:28:04;;;;;;;17.07;12.40;;;;;;;22.26;76.87;98550.02;4296225;81;20285;-81
2022/10/01 12:34:32;;;;;;;18.40;12.58;;;;;;;22.21;78.40;98539.20;4353921;79;28560;-84
2022/10/01 12:40:51;;;;;;;16.40;12.07;;;;;;;22.17;79.49;98532.77;4366611;80;28557;-84
2022/10/01 12:47:12;;;;;;;18.85;12.30;;;;;;;21.85;82.25;98521.93;4325774;80;28585;-88
2022/10/01 12:53:37;;;;;;;19.00;12.40;;;;;;;21.35;85.94;98513.48;4265969;81;28548;-85
2022/10/01 12:59:57;;;;;;;17.98;12.15;;;;;;;21.57;85.67;98515.88;4273090;82;28519;-82
2022/10/01 13:06:24;;;;;;;18.00;12.60;;;;;;;21.55;86.39;98499.78;4261567;82;28594;-83
2022/10/01 13:12:55;;;;;;;16.95;12.00;;;;;;;21.36;88.78;98487.75;4252820;82;28578;-86
2022/10/01 13:19:05;;;;;;;20.65;13.93;;;;;;;22.13;86.52;98464.16;4278977;82;28528;-83
2022/10/01 13:25:39;;;;;;;17.52;12.20;;;;;;;21.96;86.20;98477.29;4158761;83;28558;-82
2022/10/01 13:32:05;;;;;;;17.95;13.13;;;;;;;21.80;89.02;98474.77;4279902;81;28568;-83
2022/10/01 13:38:28;;;;;;;17.00;12.10;;;;;;;21.29;92.15;98468.26;4186899;83;28505;-83
2022/10/01 13:44:39;;;;;;;18.20;11.12;;;;;;;21.09;95.07;98459.53;4307109;81;28508;-83
2022/10/01 13:51:09;;;;;;;16.73;11.88;;;;;;;20.79;98.88;98456.47;4286902;81;28798;-83
2022/10/01 13:57:37;;;;;;;18.98;12.35;;;;;;;21.13;97.22;98450.94;4364079;79;28556;-83
2022/10/01 14:03:59;;;;;;;15.83;11.30;;;;;;;20.93;98.66;98441.93;4340496;81;28526;-83
2022/10/01 14:10:01;;;;;;;15.90;10.55;;;;;;;20.99;99.91;98439.32;4312902;79;28548;-84
2022/10/01 14:16:04;;;;;;;16.95;11.63;;;;;;;20.51;100.00;98421.13;4335575;80;28574;-84
2022/10/01 14:22:33;;;;;;;16.55;11.30;;;;;;;20.51;100.00;98428.50;4322682;81;28619;-84
2022/10/01 14:28:56;;;;;;;15.90;11.18;;;;;;;20.58;100.00;98414.67;4271377;81;28554;-83
2022/10/01 14:35:30;;;;;;;15.48;10.78;;;;;;;20.68;100.00;98412.22;4234472;79;28503;-84
2022/10/01 14:41:35;;;;;;;17.80;10.95;;;;;;;20.56;100.00;98396.98;4292382;81;28537;-84
2022/10/01 14:47:37;;;;;;;14.98;10.18;;;;;;;20.44;100.00;98399.73;4304799;79;28594;-84
2022/10/01 14:53:46;;;;;;;18.23;11.15;;;;;;;20.41;100.00;98394.91;4331819;80;28904;-84
2022/10/01 14:59:48;;;;;;;17.37;11.12;;;;;;;20.80;100.00;98391.16;4315343;80;29024;-84
2022/10/01 15:05:52;;;;;;;16.85;11.83;;;;;;;20.98;100.00;98385.77;4359719;80;28542;-84
2022/10/01 15:11:55;;;;;;;16.07;11.67;;;;;;;20.71;100.00;98379.39;4199479;83;28523;-84
2022/10/01 15:17:57;;;;;;;19.17;12.23;;;;;;;21.09;100.00;98373.45;4398567;79;28542;-84
2022/10/01 15:24:03;;;;;;;19.10;12.03;;;;;;;20.66;100.00;98365.85;4403518;79;28504;-84
2022/10/01 15:30:09;;;;;;;20.40;13.53;;;;;;;20.68;100.00;98367.73;4404196;79;28563;-84
2022/10/01 15:36:16;;;;;;;19.25;13.35;;;;;;;20.20;100.00;98374.14;4378459;79;28501;-83
2022/10/01 15:42:31;;;;;;;17.30;11.95;;;;;;;20.25;100.00;98379.45;4334983;80;28480;-84
2022/10/01 15:48:32;;;;;;;18.87;12.85;;;;;;;19.85;100.00;98373.30;4315617;81;28548;-83
2022/10/01 15:54:35;;;;;;;20.37;13.48;;;;;;;20.53;100.00;98374.41;4334799;80;28528;-84
2022/10/01 16:01:05;;;;;;;19.45;12.82;;;;;;;20.62;100.00;98363.76;4300109;81;28991;-83
2022/10/01 16:07:14;;;;;;;21.27;13.53;;;;;;;20.60;99.99;98357.81;4332148;80;28536;-83
2022/10/01 16:13:43;;;;;;;21.52;13.20;;;;;;;20.27;100.00;98359.50;4348325;80;28506;-84
2022/10/01 16:19:52;;;;;;;21.75;13.13;;;;;;;20.33;100.00;98351.41;4315815;80;28568;-83
2022/10/01 16:25:58;;;;;;;21.73;13.62;;;;;;;19.78;100.00;98357.38;4281027;81;28561;-84
2022/10/01 16:32:03;;;;;;;21.35;13.75;;;;;;;20.06;100.00;98355.10;4261545;82;28538;-83
2022/10/01 16:38:08;;;;;;;22.02;13.98;;;;;;;19.79;100.00;98354.89;4306943;80;28545;-82
2022/10/01 16:44:12;;;;;;;22.20;14.28;;;;;;;19.79;100.00;98354.09;4317933;81;28560;-82
2022/10/01 16:50:16;;;;;;;25.23;15.18;;;;;;;19.77;100.00;98353.58;4346392;80;28559;-84
2022/10/01 16:56:18;;;;;;;26.95;15.53;;;;;;;19.78;100.00;98352.46;4414940;79;28595;-84
2022/10/01 17:02:19;;;;;;;28.12;16.77;;;;;;;19.75;100.00;98345.73;4382573;79;28529;-84
2022/10/01 17:08:21;;;;;;;25.88;16.42;;;;;;;19.50;100.00;98347.13;4389326;79;28506;-84
2022/10/01 17:14:26;;;;;;;27.95;16.75;;;;;;;19.63;100.00;98345.48;4381040;79;28457;-84
2022/10/01 17:20:29;;;;;;;28.15;17.32;;;;;;;19.48;100.00;98333.80;4346042;79;28512;-83
2022/10/01 17:26:33;;;;;;;29.98;18.05;;;;;;;19.50;100.00;98326.10;4334825;81;28564;-84
2022/10/01 17:32:36;;;;;;;29.48;17.75;;;;;;;19.57;100.00;98327.61;4274200;81;28556;-84
2022/10/01 17:38:39;;;;;;;33.35;21.87;;;;;;;19.52;100.00;98320.36;4241757;81;28537;-83
2022/10/01 17:44:40;;;;;;;31.93;20.00;;;;;;;19.63;100.00;98310.03;4202977;82;28513;-83
2022/10/01 17:50:43;;;;;;;33.95;20.65;;;;;;;19.66;100.00;98309.41;4195110;82;28547;-82
2022/10/01 17:56:48;;;;;;;31.77;20.75;;;;;;;19.34;100.00;98301.69;4301648;81;28558;-88
2022/10/01 18:02:52;;;;;;;34.95;20.72;;;;;;;19.19;100.00;98291.38;4266788;79;28556;-86
2022/10/01 18:08:54;;;;;;;31.87;19.60;;;;;;;19.03;100.00;98284.66;4309550;80;28528;-87
2022/10/01 18:14:58;;;;;;;32.55;20.00;;;;;;;18.94;100.00;98296.24;4312932;79;28539;-85
2022/10/01 18:21:13;;;;;;;31.52;19.07;;;;;;;19.12;100.00;98297.81;4300017;81;28507;-91
2022/10/01 18:27:18;;;;;;;30.02;18.67;;;;;;;19.08;100.00;98293.53;4356908;81;28566;-88
2022/10/01 18:33:22;;;;;;;;;;;;;;;18.99;100.00;98296.69;4343541;81;28532;-85
2022/10/01 18:39:48;;;;;;;30.97;19.37;;;;;;;18.94;100.00;98297.61;4358532;81;20573;-87
2022/10/01 18:46:39;;;;;;;23.25;16.02;;;;;;;19.02;100.00;98305.64;4301378;81;28590;-87
2022/10/01 18:52:53;;;;;;;21.07;13.78;;;;;;;18.94;100.00;98307.14;4278141;81;28554;-84
2022/10/01 18:59:32;;;;;;;18.02;10.53;;;;;;;18.98;100.00;98305.98;4284611;82;28543;-90
2022/10/01 19:06:11;;;;;;;15.18;8.45;;;;;;;18.96;100.00;98302.76;4285921;82;28507;-85
2022/10/01 19:12:39;;;;;;;11.20;6.08;;;;;;;19.22;97.07;98322.66;4272396;81;28545;-87
2022/10/01 19:19:10;;;;;;;9.05;5.60;;;;;;;18.59;90.73;98346.23;4248515;81;28582;-87
2022/10/01 19:25:28;;;;;;;5.95;3.70;;;;;;;18.33;84.92;98357.58;4297537;81;28540;-88
2022/10/01 19:31:59;;;;;;;3.92;2.50;;;;;;;18.17;84.12;98374.72;4297512;81;28492;-88
2022/10/01 19:38:18;;;;;;;5.50;3.00;;;;;;;17.94;86.24;98394.09;4293712;81;28503;-89
2022/10/01 19:44:28;;;;;;;5.00;2.90;;;;;;;17.98;88.43;98398.64;4285633;81;28560;-89
2022/10/01 19:57:25;;;;;;;4.67;2.52;;;;;;;18.14;89.02;98415.30;4255469;82;28501;-94
2022/10/01 20:03:49;;;;;;;3.75;2.55;;;;;;;18.04;89.92;98422.52;4186301;83;28564;-92
2022/10/01 20:10:24;;;;;;;3.80;2.30;;;;;;;18.00;90.30;98427.45;4286460;80;28540;-92
2022/10/01 20:16:56;;;;;;;6.40;2.60;;;;;;;17.78;91.58;98437.02;4249571;80;28582;-92
2022/10/01 20:23:47;;;;;;;3.50;2.42;;;;;;;17.66;92.40;98449.70;4219870;82;28556;-93
2022/10/01 20:30:19;;;;;;;;;;;;;;;;;;;;;
2022/10/01 20:50:20;;;;;;;5.72;3.52;;;;;;;17.66;94.63;98460.58;3727081;90;28760;31
2022/10/01 20:56:33;;;;;;;;;;;;;;;16.98;98.56;98464.60;3840378;86;28532;-96
2022/10/01 21:03:13;;;;;;;7.00;3.02;;;;;;;17.49;95.44;98461.05;4076881;86;20229;-94
2022/10/01 21:09:31;;;;;;;7.53;3.15;;;;;;;17.41;95.22;98457.89;4124034;86;28559;-95
2022/10/01 21:16:33;;;;;;;5.75;3.33;;;;;;;17.44;94.58;98467.34;4110124;86;28520;-94
2022/10/01 21:22:48;;;;;;;4.47;2.80;;;;;;;17.21;94.38;98467.64;4134208;84;28584;-92
2022/10/01 21:29:25;;;;;;;5.87;2.92;;;;;;;17.28;94.70;98474.34;4108912;86;28492;-93
2022/10/01 21:36:14;;;;;;;4.28;2.80;;;;;;;17.16;94.53;98472.58;4117000;86;28524;-94
2022/10/01 21:42:41;;;;;;;6.00;2.95;;;;;;;17.10;95.39;98477.80;4124398;84;28504;-91
2022/10/01 21:49:12;;;;;;;4.83;2.98;;;;;;;17.20;94.94;98479.04;4056722;86;28526;-94
2022/10/01 21:55:57;;;;;;;5.33;3.33;;;;;;;17.13;93.77;98492.17;4071961;86;28487;-95
2022/10/01 22:02:18;;;;;;;6.37;2.92;;;;;;;17.12;93.87;98489.17;4032110;85;28526;-94
2022/10/01 22:08:58;;;;;;;5.03;3.10;;;;;;;17.27;92.00;98498.53;4088281;86;28549;-92
2022/10/01 22:15:02;;;;;;;6.15;2.98;;;;;;;16.69;93.70;98495.27;4006084;84;28531;-92
2022/10/01 22:21:11;;;;;;;4.33;2.72;;;;;;;16.69;96.62;98487.13;4094622;85;28561;-89
2022/10/01 22:27:24;;;;;;;4.83;2.80;;;;;;;16.79;94.69;98495.19;4079472;86;28536;-91
2022/10/01 22:33:34;;;;;;;5.70;3.45;;;;;;;16.23;96.75;98500.52;4098135;84;28563;-92
2022/10/01 22:39:44;;;;;;;6.67;3.22;;;;;;;16.63;94.75;98486.37;4100149;84;28538;-91
2022/10/01 22:46:25;;;;;;;5.42;2.95;;;;;;;16.28;98.46;98494.50;4103074;86;28657;-90
2022/10/01 22:52:41;;;;;;;4.80;2.67;;;;;;;16.19;96.34;98495.37;4093403;85;28633;-90
2022/10/01 22:58:59;;;;;;;4.58;2.90;;;;;;;16.02;97.47;98498.72;4119673;85;28555;-90
2022/10/01 23:05:36;;;;;;;4.42;2.75;;;;;;;16.38;95.72;98505.02;4123756;84;28516;-91
2022/10/01 23:12:04;;;;;;;3.42;2.40;;;;;;;16.53;94.76;98508.95;4160375;84;28519;-92
2022/10/01 23:18:26;;;;;;;4.72;2.60;;;;;;;16.29;95.82;98515.64;4038393;87;28550;-91
2022/10/01 23:24:59;;;;;;;4.20;2.80;;;;;;;16.85;93.25;98520.38;4208060;83;28510;-91
2022/10/01 23:31:27;;;;;;;4.62;2.67;;;;;;;16.42;96.76;98525.05;4182456;84;28523;-91
2022/10/01 23:37:56;;;;;;;4.33;2.50;;;;;;;16.26;97.27;98535.20;4125180;84;28475;-94
2022/10/01 23:44:09;;;;;;;2.95;2.17;;;;;;;16.26;98.50;98539.27;4177877;84;28525;-92
2022/10/01 23:50:22;;;;;;;3.00;2.47;;;;;;;16.28;98.38;98543.86;4174774;85;28509;-93
2022/10/01 23:56:47;;;;;;;3.72;2.40;;;;;;;15.88;100.00;98543.78;4176005;84;28555;-93
